Data for 01/11/2018

Time Sea-Level Adjusted Pressure Absolute Pressure Temperature Relative Humidity Dew Point   
(mb) (inHg) (mb) (inHg) (C) (F) (%) (C) (F)
00:05 1016 30 845 24.95 -3.4 25.8 65 -9.2 15.5
00:10 1016 30 845 24.95 -3.3 26.1 63 -9.3 15.2
00:15 1016 30 845 24.95 -3.2 26.2 65 -9 15.8
00:20 1016 30 845 24.95 -3.3 26.1 64 -9.3 15.3
00:25 1016 30 845 24.95 -3.3 26 64 -9.2 15.4
00:30 1016 30 845 24.95 -3.2 26.2 63 -9.3 15.3
00:35 1016 30 846 24.98 -3.2 26.2 63 -9.4 15.1
00:40 1016 30 846 24.98 -3.2 26.3 61 -9.7 14.6
00:45 1016 30 846 24.98 -3.1 26.4 62 -9.4 15.1
00:50 1017 30.03 846 24.98 -3.1 26.4 60 -9.8 14.3
00:55 1017 30.03 846 24.98 -3 26.5 60 -9.7 14.6
01:00 1017 30.03 846 24.98 -3 26.7 59 -9.8 14.3
01:05 1017 30.03 846 24.98 -2.9 26.8 58 -10 14
01:10 1017 30.03 846 24.98 -2.8 27 57 -10.1 13.8
01:15 1017 30.03 846 24.98 -2.8 27 58 -10 14.1
01:20 1017 30.03 846 24.98 -2.8 27 55 -10.5 13.1
01:25 1017 30.03 846 24.98 -2.6 27.3 55 -10.5 13.2
01:30 1017 30.03 846 24.98 -2.5 27.5 54 -10.5 13.1
01:35 1017 30.03 846 24.98 -2.5 27.5 54 -10.5 13
01:40 1017 30.03 846 24.98 -2.4 27.8 52 -11 12.2
01:45 1017 30.03 846 24.98 -2.3 27.9 52 -10.9 12.5
01:50 1017 30.03 846 24.98 -2.2 28 51 -11.1 12.1
01:55 1017 30.03 846 24.98 -2.3 27.9 52 -10.9 12.3
02:00 1017 30.03 846 24.98 -2.2 28 51 -10.9 12.3
02:05 1017 30.03 846 24.98 -2.2 28 51 -11.1 12
02:10 1017 30.03 846 24.98 -2.2 28.1 50 -11.2 11.9
02:15 1017 30.03 846 24.98 -2.2 28.1 51 -10.9 12.4
02:20 1017 30.03 846 24.98 -2.3 27.9 48 -11.8 10.8
02:25 1017 30.03 846 24.98 -2 28.4 49 -11.2 11.8
02:30 1017 30.03 846 24.98 -2.1 28.3 50 -11.1 12.1
02:35 1017 30.03 846 24.98 -2.1 28.3 52 -10.7 12.7
02:40 1017 30.03 846 24.98 -2.2 28.1 51 -11.1 12
02:45 1017 30.03 846 24.98 -2.1 28.2 53 -10.5 13.2
02:50 1017 30.03 846 24.98 -2.1 28.2 53 -10.5 13.1
02:55 1017 30.03 846 24.98 -2.1 28.2 52 -10.6 12.9
03:00 1017 30.03 846 24.98 -2 28.4 50 -11.1 12
03:05 1017 30.03 846 24.98 -1.8 28.7 49 -11.2 11.8
03:10 1017 30.03 846 24.98 -1.8 28.7 49 -11.2 11.8
03:15 1017 30.03 846 24.98 -1.7 28.9 48 -11.3 11.6
03:20 1017 30.03 846 24.98 -1.7 28.9 50 -10.9 12.4
03:25 1017 30.03 846 24.98 -1.9 28.6 50 -11.1 12.1
03:30 1017 30.03 847 25.01 -1.9 28.7 50 -10.9 12.4
03:35 1017 30.03 847 25.01 -1.9 28.5 49 -11.2 11.9
03:40 1017 30.03 847 25.01 -1.9 28.6 51 -10.8 12.6
03:45 1017 30.03 846 24.98 -2 28.5 52 -10.7 12.8
03:50 1017 30.03 847 25.01 -2.1 28.3 52 -10.7 12.7
03:55 1017 30.03 847 25.01 -2.1 28.2 54 -10.3 13.4
04:00 1017 30.03 846 24.98 -2.1 28.2 52 -10.7 12.7
04:05 1017 30.03 846 24.98 -2.1 28.2 54 -10.3 13.5
04:10 1017 30.03 846 24.98 -2.3 27.9 53 -10.5 13.1
04:15 1017 30.03 846 24.98 -2.2 28 54 -10.4 13.3
04:20 1017 30.03 846 24.98 -2.1 28.2 53 -10.4 13.2
04:25 1017 30.03 846 24.98 -2.1 28.3 52 -10.6 12.8
04:30 1017 30.03 846 24.98 -2 28.5 51 -10.7 12.7
04:35 1017 30.03 846 24.98 -2 28.5 51 -10.8 12.6
04:40 1017 30.03 846 24.98 -1.7 28.9 49 -11.1 12.1
04:45 1016 30 846 24.98 -1.7 28.9 49 -11 12.1
04:50 1017 30.03 846 24.98 -1.8 28.7 50 -11 12.3
04:55 1017 30.03 846 24.98 -2.1 28.1 53 -10.4 13.3
05:00 1017 30.03 846 24.98 -2.4 27.7 55 -10.1 13.7
05:05 1017 30.03 846 24.98 -2.8 26.9 57 -10.2 13.7
05:10 1017 30.03 846 24.98 -3.3 26 57 -10.8 12.6
05:15 1017 30.03 846 24.98 -3.4 26 56 -10.9 12.4
05:20 1017 30.03 846 24.98 -3.3 26.1 55 -11 12.2
05:25 1017 30.03 846 24.98 -3.4 25.9 57 -10.7 12.7
05:30 1017 30.03 846 24.98 -3.4 25.9 59 -10.4 13.3
05:35 1017 30.03 846 24.98 -3.4 26 58 -10.5 13
05:40 1017 30.03 846 24.98 -3.2 26.3 55 -11.1 12.1
05:45 1017 30.03 846 24.98 -2.5 27.5 53 -10.9 12.3
05:50 1017 30.03 846 24.98 -2.3 27.8 51 -11.2 11.8
05:55 1017 30.03 846 24.98 -2.3 27.8 52 -10.9 12.5
06:00 1017 30.03 846 24.98 -2.3 27.8 53 -10.6 12.8
06:05 1017 30.03 846 24.98 -2.5 27.5 54 -10.6 13
06:10 1017 30.03 846 24.98 -2.7 27.1 55 -10.5 13.2
06:15 1017 30.03 846 24.98 -2.7 27.2 57 -10.1 13.8
06:20 1017 30.03 846 24.98 -2.8 27 61 -9.2 15.4
06:25 1017 30.03 846 24.98 -3.3 26.1 66 -8.8 16.2
06:30 1017 30.03 846 24.98 -4.1 24.6 69 -9 15.8
06:35 1017 30.03 846 24.98 -4.1 24.6 67 -9.3 15.3
06:40 1017 30.03 846 24.98 -3.9 25 68 -9 15.9
06:45 1017 30.03 846 24.98 -3.8 25.1 66 -9.3 15.3
06:50 1017 30.03 846 24.98 -3.7 25.4 69 -8.6 16.5
06:55 1017 30.03 846 24.98 -3.9 24.9 70 -8.5 16.6
07:00 1017 30.03 846 24.98 -4.1 24.6 71 -8.5 16.6
07:05 1017 30.03 846 24.98 -4.1 24.7 67 -9.4 15.2
07:10 1017 30.03 846 24.98 -3.9 25.1 67 -9.1 15.6
07:15 1017 30.03 846 24.98 -4 24.7 68 -9 15.7
07:20 1017 30.03 847 25.01 -4.2 24.4 68 -9.3 15.3
07:25 1017 30.03 847 25.01 -4.1 24.7 71 -8.7 16.4
07:30 1017 30.03 847 25.01 -4.3 24.3 74 -8.3 17.1
07:35 1017 30.03 847 25.01 -4.6 23.7 70 -9.3 15.3
07:40 1017 30.03 847 25.01 -4.4 24.1 72 -8.6 16.4
07:45 1018 30.06 847 25.01 -4.4 24 73 -8.5 16.6
07:50 1018 30.06 847 25.01 -4.6 23.8 73 -8.7 16.4
07:55 1018 30.06 847 25.01 -4.3 24.2 71 -8.7 16.3
08:00 1018 30.06 847 25.01 -4.1 24.6 69 -9 15.8
08:05 1017 30.03 847 25.01 -4 24.7 69 -9 15.8
08:10 1018 30.06 847 25.01 -3.9 25 71 -8.5 16.7
08:15 1018 30.06 847 25.01 -3.7 25.3 69 -8.5 16.6
08:20 1018 30.06 847 25.01 -3.8 25.1 67 -9.1 15.6
08:25 1018 30.06 847 25.01 -3.7 25.4 69 -8.6 16.5
08:30 1018 30.06 847 25.01 -3.8 25.1 69 -8.8 16.2
08:35 1018 30.06 847 25.01 -3.8 25.2 72 -8.2 17.3
08:40 1018 30.06 847 25.01 -3.7 25.4 72 -8 17.6
08:45 1018 30.06 847 25.01 -3.7 25.3 73 -8 17.7
08:50 1018 30.06 847 25.01 -3.7 25.4 72 -8 17.6
08:55 1018 30.06 847 25.01 -3.6 25.5 71 -8.1 17.5
09:00 1018 30.06 847 25.01 -3.4 25.8 73 -7.6 18.3
09:05 1018 30.06 847 25.01 -3.4 25.9 73 -7.5 18.5
09:10 1018 30.06 847 25.01 -3.4 25.9 74 -7.4 18.7
09:15 1018 30.06 847 25.01 -3.4 26 73 -7.6 18.4
09:20 1018 30.06 847 25.01 -3.3 26 73 -7.5 18.5
09:25 1018 30.06 847 25.01 -3.2 26.2 71 -7.7 18.1
09:30 1018 30.06 847 25.01 -3.1 26.4 72 -7.5 18.5
09:35 1018 30.06 847 25.01 -3.1 26.4 71 -7.7 18.2
09:40 1018 30.06 847 25.01 -2.9 26.8 72 -7.3 18.8
09:45 1018 30.06 847 25.01 -2.9 26.8 71 -7.5 18.4
09:50 1018 30.06 847 25.01 -2.8 26.9 72 -7.2 19.1
09:55 1018 30.06 847 25.01 -2.8 27 71 -7.3 18.9
10:00 1018 30.06 847 25.01 -2.5 27.4 71 -7 19.3
10:05 1018 30.06 847 25.01 -2.2 28.1 68 -7.3 18.9
10:10 1017 30.03 847 25.01 -2.1 28.2 69 -7 19.4
10:15 1017 30.03 847 25.01 -2.1 28.3 69 -7.1 19.3
10:20 1017 30.03 846 24.98 -1.9 28.6 68 -7.1 19.3
10:25 1017 30.03 846 24.98 -1.8 28.8 67 -7.1 19.1
10:30 1017 30.03 846 24.98 -1.8 28.8 68 -6.9 19.5
10:35 1017 30.03 846 24.98 -1.8 28.7 70 -6.6 20.1
10:40 1017 30.03 846 24.98 -1.6 29 69 -6.6 20
10:45 1017 30.03 846 24.98 -1.5 29.3 68 -6.6 20.1
10:50 1017 30.03 846 24.98 -1.6 29.1 68 -6.8 19.8
10:55 1017 30.03 846 24.98 -1.5 29.2 68 -6.7 19.9
11:00 1016 30 846 24.98 -1.4 29.5 69 -6.4 20.6
11:05 1016 30 846 24.98 -1 30.2 66 -6.5 20.3
11:10 1016 30 846 24.98 -1.1 30 67 -6.5 20.4
11:15 1016 30 845 24.95 -1 30.2 68 -6.2 20.8
11:20 1016 30 845 24.95 -0.7 30.7 66 -6.3 20.7
11:25 1016 30 845 24.95 -0.6 30.9 66 -6.1 21
11:30 1016 30 845 24.95 -0.5 31 64 -6.5 20.3
11:35 1016 30 845 24.95 -0.6 31 66 -6.2 20.9
11:40 1016 30 845 24.95 -0.6 30.9 65 -6.3 20.6
11:45 1016 30 845 24.95 -0.4 31.3 65 -6.3 20.7
11:50 1016 30 845 24.95 -0.2 31.6 65 -6.1 21
11:55 1016 30 845 24.95 0.2 32.3 62 -6.2 20.9
12:00 1015 29.97 845 24.95 0.5 32.8 63 -5.8 21.6
12:05 1015 29.97 845 24.95 0.6 33.1 61 -6 21.2
12:10 1015 29.97 844 24.92 0.8 33.4 60 -6 21.1
12:15 1015 29.97 844 24.92 0.7 33.2 61 -6 21.2
12:20 1015 29.97 844 24.92 0.8 33.5 61 -5.8 21.6
12:25 1015 29.97 844 24.92 0.6 33.1 63 -5.7 21.7
12:30 1015 29.97 844 24.92 0.3 32.6 61 -6.3 20.7
12:35 1015 29.97 844 24.92 0.2 32.3 63 -6 21.2
12:40 1015 29.97 844 24.92 0.4 32.7 62 -6 21.1
12:45 1015 29.97 844 24.92 0.5 32.8 63 -5.7 21.7
12:50 1015 29.97 844 24.92 0.3 32.6 64 -5.7 21.7
12:55 1015 29.97 844 24.92 0.5 32.8 65 -5.3 22.4
13:00 1015 29.97 844 24.92 0.2 32.4 67 -5.3 22.5
13:05 1015 29.97 844 24.92 0 32 66 -5.6 22
13:10 1015 29.97 844 24.92 -0.1 31.9 68 -5.3 22.5
13:15 1015 29.97 844 24.92 -0.2 31.7 67 -5.5 22.1
13:20 1014 29.94 844 24.92 -0.1 31.7 68 -5.4 22.2
13:25 1014 29.94 844 24.92 -0.4 31.3 68 -5.6 22
13:30 1014 29.94 843 24.89 -0.5 31.1 68 -5.8 21.6
13:35 1014 29.94 843 24.89 -0.4 31.2 68 -5.7 21.7
13:40 1014 29.94 843 24.89 -0.3 31.5 68 -5.5 22.1
13:45 1014 29.94 843 24.89 -0.3 31.4 68 -5.5 22.1
13:50 1014 29.94 843 24.89 -0.4 31.4 70 -5.2 22.7
13:55 1014 29.94 843 24.89 -0.1 31.8 66 -5.7 21.8
14:00 1014 29.94 843 24.89 -0 32 67 -5.4 22.3
14:05 1014 29.94 843 24.89 -0 31.9 67 -5.4 22.2
14:10 1014 29.94 843 24.89 0.2 32.3 66 -5.4 22.2
14:15 1014 29.94 843 24.89 0.4 32.7 66 -5.3 22.5
14:20 1014 29.94 843 24.89 0.2 32.4 68 -5 22.9
14:25 1014 29.94 843 24.89 0.2 32.4 66 -5.5 22.2
14:30 1014 29.94 843 24.89 -0 31.9 66 -5.6 21.9
14:35 1013 29.91 843 24.89 -0.2 31.7 67 -5.6 21.8
14:40 1013 29.91 843 24.89 -0.2 31.6 67 -5.6 21.9
14:45 1014 29.94 843 24.89 -0.4 31.2 68 -5.5 22
14:50 1014 29.94 843 24.89 -0.5 31.1 68 -5.7 21.7
14:55 1014 29.94 843 24.89 -0.5 31.1 68 -5.7 21.7
15:00 1013 29.91 843 24.89 -0.4 31.2 67 -5.7 21.7
15:05 1013 29.91 843 24.89 -0.4 31.3 68 -5.5 22
15:10 1013 29.91 843 24.89 -0.4 31.2 69 -5.4 22.2
15:15 1013 29.91 843 24.89 -0.6 31 70 -5.4 22.3
15:20 1013 29.91 843 24.89 -0.6 30.8 69 -5.7 21.8
15:25 1013 29.91 843 24.89 -0.6 30.9 70 -5.4 22.2
15:30 1013 29.91 842 24.86 -0.6 30.9 71 -5.3 22.4
15:35 1013 29.91 842 24.86 -0.7 30.8 71 -5.3 22.4
15:40 1013 29.91 842 24.86 -0.6 30.9 71 -5.2 22.7
15:45 1013 29.91 842 24.86 -0.7 30.8 73 -5 23.1
15:50 1013 29.91 842 24.86 -0.8 30.6 73 -5.1 22.8
15:55 1013 29.91 842 24.86 -0.8 30.6 73 -5.1 22.8
16:00 1013 29.91 842 24.86 -0.8 30.6 74 -4.9 23.1
16:05 1013 29.91 842 24.86 -0.8 30.5 73 -5 22.9
16:10 1013 29.91 842 24.86 -0.8 30.5 74 -5 23.1
16:15 1013 29.91 842 24.86 -0.8 30.5 73 -5 23
16:20 1013 29.91 842 24.86 -0.8 30.5 73 -5 23
16:25 1013 29.91 842 24.86 -0.8 30.6 74 -4.9 23.2
16:30 1013 29.91 842 24.86 -0.7 30.7 74 -4.8 23.3
16:35 1013 29.91 842 24.86 -0.7 30.7 74 -4.8 23.3
16:40 1013 29.91 842 24.86 -0.6 30.9 73 -4.8 23.3
16:45 1013 29.91 842 24.86 -0.7 30.8 75 -4.6 23.8
16:50 1013 29.91 842 24.86 -0.7 30.7 76 -4.5 23.9
16:55 1013 29.91 842 24.86 -0.7 30.7 76 -4.4 24
17:00 1012 29.88 842 24.86 -0.7 30.7 77 -4.2 24.4
17:05 1012 29.88 842 24.86 -0.7 30.7 77 -4.2 24.4
17:10 1012 29.88 842 24.86 -0.7 30.7 78 -4.2 24.5
17:15 1012 29.88 842 24.86 -0.8 30.6 78 -4.1 24.7
17:20 1012 29.88 842 24.86 -0.8 30.5 80 -3.9 25
17:25 1012 29.88 842 24.86 -0.9 30.4 80 -3.8 25.1
17:30 1012 29.88 842 24.86 -0.9 30.3 82 -3.7 25.3
17:35 1012 29.88 842 24.86 -0.9 30.3 83 -3.5 25.6
17:40 1012 29.88 841 24.83 -0.9 30.3 83 -3.5 25.8
17:45 1012 29.88 841 24.83 -1 30.1 83 -3.5 25.7
17:50 1012 29.88 841 24.83 -1.1 30.1 83 -3.6 25.6
17:55 1012 29.88 841 24.83 -1.1 30 83 -3.6 25.5
18:00 1012 29.88 841 24.83 -1.1 30 83 -3.6 25.4
18:05 1012 29.88 841 24.83 -1.1 30 83 -3.7 25.4
18:10 1012 29.88 841 24.83 -1.1 30 83 -3.7 25.3
18:15 1012 29.88 841 24.83 -1.1 30 82 -3.8 25.2
18:20 1012 29.88 841 24.83 -1.1 30 82 -3.8 25.1
18:25 1012 29.88 841 24.83 -1.1 30 82 -3.9 25.1
18:30 1011 29.85 841 24.83 -1.1 30 81 -4 24.9
18:35 1011 29.85 841 24.83 -1 30.2 80 -4 24.8
18:40 1011 29.85 841 24.83 -0.9 30.4 79 -4.1 24.6
18:45 1011 29.85 841 24.83 -0.8 30.5 79 -4 24.9
18:50 1011 29.85 841 24.83 -0.8 30.5 79 -3.9 24.9
18:55 1011 29.85 840 24.81 -0.8 30.6 80 -3.9 25
19:00 1011 29.85 840 24.81 -0.8 30.6 79 -3.9 24.9
19:05 1011 29.85 840 24.81 -0.9 30.4 80 -3.8 25.1
19:10 1011 29.85 840 24.81 -1 30.3 80 -3.9 24.9
19:15 1011 29.85 840 24.81 -1 30.3 80 -3.9 24.9
19:20 1011 29.85 840 24.81 -1 30.2 80 -4 24.8
19:25 1011 29.85 840 24.81 -1 30.3 80 -4 24.8
19:30 1011 29.85 840 24.81 -0.9 30.3 80 -4 24.8
19:35 1011 29.85 840 24.81 -0.9 30.5 80 -4 24.9
19:40 1011 29.85 840 24.81 -0.8 30.5 79 -4 24.8
19:45 1011 29.85 840 24.81 -0.8 30.5 79 -4 24.8
19:50 1011 29.85 840 24.81 -0.8 30.5 79 -4 24.8
19:55 1011 29.85 840 24.81 -0.8 30.6 79 -4 24.7
20:00 1011 29.85 841 24.83 -0.7 30.7 78 -4 24.7
20:05 1011 29.85 841 24.83 -0.7 30.8 78 -4.1 24.6
20:10 1011 29.85 841 24.83 -0.6 30.9 78 -4 24.8
20:15 1011 29.85 841 24.83 -0.6 30.8 77 -4.1 24.6
20:20 1011 29.85 841 24.83 -0.6 30.9 78 -4 24.8
20:25 1011 29.85 841 24.83 -0.7 30.8 79 -3.8 25.1
20:30 1011 29.85 841 24.83 -0.7 30.7 79 -3.9 25
20:35 1011 29.85 841 24.83 -0.7 30.8 78 -4 24.7
20:40 1011 29.85 841 24.83 -0.6 31 79 -3.8 25.1
20:45 1012 29.88 841 24.83 -0.6 30.8 79 -3.8 25.1
20:50 1011 29.85 841 24.83 -0.8 30.6 80 -3.8 25.2
20:55 1012 29.88 841 24.83 -0.9 30.4 81 -3.8 25.2
21:00 1012 29.88 841 24.83 -0.9 30.4 80 -3.9 24.9
21:05 1012 29.88 841 24.83 -0.8 30.6 79 -3.9 25
21:10 1011 29.85 841 24.83 -0.7 30.7 80 -3.8 25.2
21:15 1011 29.85 841 24.83 -0.8 30.5 81 -3.7 25.3
21:20 1012 29.88 841 24.83 -0.9 30.4 81 -3.7 25.3
21:25 1012 29.88 841 24.83 -0.9 30.4 82 -3.6 25.5
21:30 1012 29.88 841 24.83 -1 30.3 82 -3.6 25.5
21:35 1012 29.88 841 24.83 -0.9 30.4 81 -3.8 25.2
21:40 1012 29.88 841 24.83 -0.8 30.6 80 -3.8 25.2
21:45 1012 29.88 841 24.83 -0.6 30.9 79 -3.9 25
21:50 1012 29.88 841 24.83 -0.7 30.8 81 -3.6 25.6
21:55 1012 29.88 841 24.83 -0.8 30.5 81 -3.7 25.4
22:00 1012 29.88 841 24.83 -0.8 30.5 81 -3.7 25.4
22:05 1012 29.88 841 24.83 -0.9 30.4 80 -3.9 24.9
22:10 1012 29.88 841 24.83 -0.8 30.5 81 -3.7 25.3
22:15 1012 29.88 841 24.83 -0.9 30.3 82 -3.7 25.4
22:20 1012 29.88 841 24.83 -0.9 30.4 81 -3.8 25.1
22:25 1012 29.88 841 24.83 -0.7 30.7 80 -3.8 25.2
22:30 1012 29.88 841 24.83 -0.6 30.9 79 -3.8 25.2
22:35 1012 29.88 841 24.83 -0.5 31.1 79 -3.7 25.4
22:40 1012 29.88 841 24.83 -0.5 31 80 -3.6 25.5
22:45 1012 29.88 841 24.83 -0.7 30.7 79 -4 24.8
22:50 1012 29.88 841 24.83 -0.7 30.8 78 -4.1 24.7
22:55 1012 29.88 841 24.83 -0.4 31.3 76 -4.1 24.6
23:00 1012 29.88 841 24.83 -0.3 31.5 77 -3.9 25.1
23:05 1012 29.88 841 24.83 -0.1 31.7 76 -3.9 25
23:10 1012 29.88 841 24.83 0.1 32.3 77 -3.5 25.8
23:15 1012 29.88 841 24.83 0.2 32.3 79 -3.1 26.4
23:20 1012 29.88 841 24.83 -0.1 31.8 80 -3.2 26.3
23:25 1012 29.88 842 24.86 -0.1 31.9 80 -3 26.5
23:30 1012 29.88 842 24.86 0.1 32.3 80 -2.9 26.8
23:35 1013 29.91 842 24.86 0.3 32.6 79 -2.8 26.9
23:40 1013 29.91 842 24.86 0.7 33.2 78 -2.8 27
23:45 1013 29.91 842 24.86 0.7 33.3 77 -2.9 26.8
23:50 1013 29.91 842 24.86 0.7 33.3 78 -2.7 27.1
23:55 1013 29.91 842 24.86 0.5 32.9 78 -2.8 26.9
24:00 1013 29.91 842 24.86 0.5 32.9 78 -2.8 26.9